x

West Bermuda - 240 Nm West Of Bermuda (41048) Wave Buoy

1:50pm - Fri 4th Sep 2015 All times are UTC.

  • Sig Wave height 2.0ft
  • Swell Direction
  • Peak Period 9s
  • Average Period 5s
  • Wind
    9mph, 11mph gusts
  • Sea Temp 83°f
  • Air Temp 82°f
  • Sea Pressure 1013.2mb

More Historic Weather Station data

Upgrade to MSW Pro to gain access to the past 30 days of data for over 8000 Wavebouys and Weather Stations around the globe.

Join Pro

Comparision Forecast

View Surf forecast
   
Fri 09/04 1:50pm 2ft 9s 5s 9 11 mph 1013.2mb 83f 82f
12:50pm 2ft 11s 5s 9 11 mph 1012.8mb 83f 82f
11:50am 2ft 11s 4s 7 9 mph 1012.8mb 83f 82f
10:50am 2ft 4s 5s 7 9 mph 1011.9mb 83f 82f
9:50am 2.5ft 11s 4s 7 11 mph 1011.4mb 83f 82f
8:50am 2.5ft 4s 4s 9 11 mph 1011.2mb 83f 81f
7:50am 2.5ft 4s 5s 9 11 mph 1011.1mb 83f 81f
6:50am 2.5ft 5s 4s 11 13 mph 1011.2mb 83f 81f
5:50am 2.5ft 4s 4s 7 9 mph 1011.6mb 83f 81f
4:50am 2.5ft 5s 4s 7 9 mph 1011.9mb 83f 82f
3:50am 2.5ft 4s 4s 7 9 mph 1011.8mb 83f 82f
2:50am 2.5ft 4s 4s 9 11 mph 1011.3mb 83f 82f
1:50am 2.5ft 5s 4s 7 9 mph 1011.6mb 83f 82f
12:50am 2.5ft 5s 4s 11 13 mph 1011.3mb 83f 82f
Thu 09/03 11:50pm 2.5ft 5s 4s 11 13 mph 1010.8mb 83f 82f
10:50pm 2.5ft 5s 4s 11 13 mph 1010.6mb 83f 82f
9:50pm 2.5ft 5s 4s 13 16 mph 1010.7mb 84f 82f
8:50pm 2.5ft 5s 4s 13 16 mph 1010.8mb 84f 82f
7:50pm 2.5ft 5s 4s 13 16 mph 1010.8mb 84f 82f
6:50pm 2.5ft 5s 4s 13 16 mph 1011.4mb 84f 82f
5:50pm 2.5ft 5s 4s 11 13 mph 1011.7mb 84f 82f
4:50pm 2.5ft 6s 4s 13 16 mph 1011.6mb 84f 82f
3:50pm 2.5ft 6s 4s 13 16 mph 1011.9mb 83f 82f
2:50pm 3ft 5s 5s 13 16 mph 1012mb 83f 82f
1:50pm 3ft 6s 5s 13 16 mph 1011.9mb 83f 82f
12:50pm 3ft 5s 5s 13 16 mph 1011.6mb 83f 81f
11:50am 3ft 5s 4s 13 16 mph 1011.5mb 83f 82f
10:50am 3.5ft 6s 4s 16 18 mph 1011.4mb 83f 82f
9:50am 3.5ft 6s 4s 16 18 mph 1011mb 83f 82f
8:50am 3.5ft 5s 4s 16 18 mph 1011mb 83f 82f
7:50am 3ft 6s 5s 18 20 mph 1010.9mb 83f 82f
6:50am 3.5ft 5s 5s 16 18 mph 1011.6mb 83f 82f
5:50am 3.5ft 6s 5s 13 16 mph 1011.9mb 83f 82f
4:50am 3.5ft 5s 5s 13 16 mph 1012.4mb 83f 82f
3:50am 3.5ft 5s 5s 13 16 mph 1012.7mb 83f 82f
2:50am 3.5ft 6s 5s 16 18 mph 1012.8mb 83f 82f
1:50am 3.5ft 6s 5s 11 16 mph 1012.9mb 83f 78f
12:50am 3.5ft 6s 5s 16 18 mph 1013mb 83f 83f
Wed 09/02 11:50pm 3.5ft 5s 4s 16 18 mph 1013.2mb 83f 83f
10:50pm 3.5ft 6s 5s 16 18 mph 1012.9mb 83f 83f
9:50pm 3.5ft 6s 5s 16 18 mph 1013.4mb 84f 83f
8:50pm 3.5ft 5s 5s 11 16 mph 1013.6mb 84f 82f
7:50pm 3.5ft 7s 5s 13 16 mph 1014.3mb 84f 83f
6:50pm 3.5ft 6s 5s 9 11 mph 1014.9mb 84f 80f
5:50pm 3ft 7s 5s 13 16 mph 1015.3mb 83f 83f
4:50pm 3ft 7s 5s 2 7 mph 1015.9mb 83f 82f
3:50pm 3ft 12s 5s 13 22 mph 1016.3mb 83f 80f
2:50pm 3ft 4s 5s 11 13 mph 1016.7mb 83f 83f
1:50pm 3ft 14s 5s 11 13 mph 1016.4mb 83f 83f
12:50pm 3ft 14s 5s 11 13 mph 1016.3mb 83f 82f
11:50am 3ft 4s 4s 11 16 mph 1016.4mb 83f 81f
10:50am 2.5ft 14s 4s 18 22 mph 1016.4mb 83f 80f
9:50am 2.5ft 13s 5s 18 20 mph 1016.2mb 83f 81f
8:50am 2.5ft 14s 5s 11 16 mph 1016.2mb 83f 82f
7:50am 2.5ft 14s 5s 13 16 mph 1016.3mb 83f 81f
6:50am 2.5ft 9s 5s 11
mph
1016.9mb 83f 81f
5:50am 3ft 6s 5s 13 16 mph 1017.4mb 83f 82f
4:50am 2.5ft 13s 5s 16 18 mph 1017.8mb 83f 82f
3:50am 3ft 14s 5s 13 16 mph 1018mb 84f 83f
2:50am 3ft 7s 5s 13 16 mph 1018.3mb 84f 83f
1:50am 2.5ft 14s 5s 13 16 mph 1018.3mb 84f 83f
12:50am 2.5ft 14s 5s 13 16 mph 1018.2mb 84f 83f
Tue 09/01 11:50pm 2.5ft 14s 5s 13 18 mph 1017.7mb 84f 82f
10:50pm 2.5ft 10s 5s 16 18 mph 1017.7mb 84f 82f
9:50pm 2.5ft 9s 5s 16 18 mph 1017.5mb 84f 82f
8:50pm 2.5ft 8s 5s 13 16 mph 1017.8mb 84f 81f
7:50pm 2.5ft 14s 6s 11 13 mph 1018.6mb 84f 81f
6:50pm 2.5ft 9s 5s 7 9 mph 1019.5mb 84f 80f
5:50pm 2.5ft 9s 5s 2 4 mph 1020.1mb 84f 80f
4:50pm 2.5ft 9s 5s 7
mph
1020.3mb 84f 79f
3:50pm 2.5ft 8s 5s 13 16 mph 1020.5mb 84f 78f
2:50pm 2.5ft 10s 6s 9 11 mph 1020.8mb 84f 83f
1:50pm 2.5ft 9s 6s 9 11 mph 1020.4mb 84f 83f
12:50pm 2.5ft 10s 6s 9 13 mph 1019.5mb 83f 82f
11:50am 2.5ft 10s 6s 9
mph
1019.7mb 83f 83f
10:50am 2.5ft 11s 6s 7 9 mph 1019.7mb 83f 82f
9:50am 2.5ft 9s 6s 7 9 mph 1019.5mb 83f 82f
8:50am 2.5ft 10s 6s 7 9 mph 1019.3mb 84f 82f
7:50am 2.5ft 10s 6s 7 11 mph 1019.3mb 84f 82f
6:50am 2.5ft 9s 6s 7 11 mph 1019.7mb 84f 82f
5:50am 2.5ft 10s 6s 7
mph
1019.8mb 84f 82f
4:50am 2.5ft 10s 6s 7 9 mph 1020.2mb 84f 83f
3:50am 2.5ft 9s 6s 7 9 mph 1020.6mb 84f 83f
2:50am 2.5ft 9s 6s 7 9 mph 1020.7mb 84f 83f
1:50am 2.5ft 9s 6s 7 9 mph 1020.5mb 84f 83f
12:50am 2.5ft 7s 5s 7 9 mph 1020.3mb 84f 83f
Mon 08/31 11:50pm 3ft 9s 6s 9
mph
1020.1mb 84f 83f
10:50pm 2.5ft 10s 6s 7 9 mph 1019.7mb 84f 83f
9:50pm 3ft 8s 6s 7 9 mph 1019.8mb 84f 84f
8:50pm 3ft 9s 6s 9
mph
1019.8mb 85f 84f
7:50pm 3ft 8s 6s 7 9 mph 1020mb 85f 83f
6:50pm 3ft 9s 6s 7 9 mph 1020.3mb 85f 83f
5:50pm 3.5ft 9s 6s 7 9 mph 1020.7mb 84f 83f
4:50pm 3ft 8s 6s 9 11 mph 1021.1mb 84f 83f
3:50pm 3.5ft 7s 6s 9 11 mph 1021.5mb 84f 83f